Terminal Aerodrome Forecast
Issued by NWS Bismarck, ND

Home | Current Version | Previous Version | Graphics & Text | Print | Product List | Glossary On
Versions: 1 2 3 4 5 6 7 8 9 10 11 12 13 14 15 16 17 18 19 20
000
FTUS43 KBIS 251100
TAFBIS
TAF
KBIS 251120Z 2512/2612 10010KT P6SM OVC007
      TEMPO 2512/2516 4SM BR
     FM251600 11011KT P6SM OVC012
     FM252000 12009KT P6SM SCT015 OVC025=

USA.gov is the U.S. government's official web portal to all federal, state and local government web resources and services.